sensor_id;sensor_type;location;lat;lon;timestamp;P1;durP1;ratioP1;P2;durP2;ratioP2
65658;SDS011;60181;53.258;6.932;2022-08-21T00:03:05;12.60;;;4.10;;
65658;SDS011;60181;53.258;6.932;2022-08-21T00:07:29;13.30;;;4.50;;
65658;SDS011;60181;53.258;6.932;2022-08-21T00:11:57;13.30;;;4.50;;
65658;SDS011;60181;53.258;6.932;2022-08-21T00:16:25;15.10;;;4.70;;
65658;SDS011;60181;53.258;6.932;2022-08-21T00:20:53;15.10;;;4.70;;
65658;SDS011;60181;53.258;6.932;2022-08-21T00:25:21;15.10;;;4.70;;
65658;SDS011;60181;53.258;6.932;2022-08-21T00:29:49;11.30;;;4.70;;
65658;SDS011;60181;53.258;6.932;2022-08-21T00:34:17;11.30;;;4.70;;
65658;SDS011;60181;53.258;6.932;2022-08-21T00:38:45;10.10;;;4.50;;
65658;SDS011;60181;53.258;6.932;2022-08-21T00:43:14;10.10;;;4.50;;
65658;SDS011;60181;53.258;6.932;2022-08-21T00:47:41;8.40;;;4.20;;
65658;SDS011;60181;53.258;6.932;2022-08-21T00:52:10;8.40;;;4.20;;
65658;SDS011;60181;53.258;6.932;2022-08-21T00:56:37;13.80;;;4.70;;
65658;SDS011;60181;53.258;6.932;2022-08-21T01:01:05;13.80;;;4.70;;
65658;SDS011;60181;53.258;6.932;2022-08-21T01:05:33;13.80;;;4.70;;
65658;SDS011;60181;53.258;6.932;2022-08-21T01:10:01;13.30;;;4.60;;
65658;SDS011;60181;53.258;6.932;2022-08-21T01:14:29;13.30;;;4.60;;
65658;SDS011;60181;53.258;6.932;2022-08-21T01:18:57;12.60;;;4.80;;
65658;SDS011;60181;53.258;6.932;2022-08-21T01:23:25;12.60;;;4.80;;
65658;SDS011;60181;53.258;6.932;2022-08-21T01:27:53;12.20;;;4.70;;
65658;SDS011;60181;53.258;6.932;2022-08-21T01:32:21;12.20;;;4.70;;
65658;SDS011;60181;53.258;6.932;2022-08-21T01:36:49;10.10;;;4.60;;
65658;SDS011;60181;53.258;6.932;2022-08-21T01:41:17;10.10;;;4.60;;
65658;SDS011;60181;53.258;6.932;2022-08-21T01:45:45;10.10;;;4.60;;
65658;SDS011;60181;53.258;6.932;2022-08-21T01:50:14;16.00;;;5.00;;
65658;SDS011;60181;53.258;6.932;2022-08-21T01:54:41;16.00;;;5.00;;
65658;SDS011;60181;53.258;6.932;2022-08-21T01:59:09;12.80;;;4.90;;
65658;SDS011;60181;53.258;6.932;2022-08-21T02:03:37;12.80;;;4.90;;
65658;SDS011;60181;53.258;6.932;2022-08-21T02:08:05;10.20;;;4.60;;
65658;SDS011;60181;53.258;6.932;2022-08-21T02:12:33;10.20;;;4.60;;
65658;SDS011;60181;53.258;6.932;2022-08-21T02:17:01;12.20;;;4.60;;
65658;SDS011;60181;53.258;6.932;2022-08-21T02:21:29;12.20;;;4.60;;
65658;SDS011;60181;53.258;6.932;2022-08-21T02:25:57;12.20;;;4.60;;
65658;SDS011;60181;53.258;6.932;2022-08-21T02:30:27;13.70;;;4.30;;
65658;SDS011;60181;53.258;6.932;2022-08-21T02:34:53;13.70;;;4.30;;
65658;SDS011;60181;53.258;6.932;2022-08-21T02:39:21;11.00;;;4.20;;
65658;SDS011;60181;53.258;6.932;2022-08-21T02:43:49;11.00;;;4.20;;
65658;SDS011;60181;53.258;6.932;2022-08-21T02:48:19;9.60;;;3.90;;
65658;SDS011;60181;53.258;6.932;2022-08-21T02:52:45;9.60;;;3.90;;
65658;SDS011;60181;53.258;6.932;2022-08-21T02:57:13;17.50;;;4.20;;
65658;SDS011;60181;53.258;6.932;2022-08-21T03:01:41;17.50;;;4.20;;
65658;SDS011;60181;53.258;6.932;2022-08-21T03:06:09;17.50;;;4.20;;
65658;SDS011;60181;53.258;6.932;2022-08-21T03:10:37;12.40;;;4.00;;
65658;SDS011;60181;53.258;6.932;2022-08-21T03:15:06;12.40;;;4.00;;
65658;SDS011;60181;53.258;6.932;2022-08-21T03:19:33;10.50;;;3.80;;
65658;SDS011;60181;53.258;6.932;2022-08-21T03:24:01;10.50;;;3.80;;
65658;SDS011;60181;53.258;6.932;2022-08-21T03:28:29;22.20;;;4.30;;
65658;SDS011;60181;53.258;6.932;2022-08-21T03:32:59;22.20;;;4.30;;
65658;SDS011;60181;53.258;6.932;2022-08-21T03:37:25;18.70;;;4.20;;
65658;SDS011;60181;53.258;6.932;2022-08-21T03:41:53;18.70;;;4.20;;
65658;SDS011;60181;53.258;6.932;2022-08-21T03:46:21;18.70;;;4.20;;
65658;SDS011;60181;53.258;6.932;2022-08-21T03:50:51;21.70;;;4.00;;
65658;SDS011;60181;53.258;6.932;2022-08-21T03:55:17;21.70;;;4.00;;
65658;SDS011;60181;53.258;6.932;2022-08-21T03:59:45;22.60;;;4.40;;
65658;SDS011;60181;53.258;6.932;2022-08-21T04:04:13;22.60;;;4.40;;
65658;SDS011;60181;53.258;6.932;2022-08-21T04:08:41;19.50;;;4.70;;
65658;SDS011;60181;53.258;6.932;2022-08-21T04:13:09;19.50;;;4.70;;
65658;SDS011;60181;53.258;6.932;2022-08-21T04:17:37;15.00;;;4.20;;
65658;SDS011;60181;53.258;6.932;2022-08-21T04:22:05;15.00;;;4.20;;
65658;SDS011;60181;53.258;6.932;2022-08-21T04:26:36;14.20;;;4.00;;
65658;SDS011;60181;53.258;6.932;2022-08-21T04:31:01;14.20;;;4.00;;
65658;SDS011;60181;53.258;6.932;2022-08-21T04:35:29;14.20;;;4.00;;
65658;SDS011;60181;53.258;6.932;2022-08-21T04:39:57;15.50;;;3.80;;
65658;SDS011;60181;53.258;6.932;2022-08-21T04:44:25;15.50;;;3.80;;
65658;SDS011;60181;53.258;6.932;2022-08-21T04:48:53;15.30;;;3.80;;
65658;SDS011;60181;53.258;6.932;2022-08-21T04:53:30;15.30;;;3.80;;
65658;SDS011;60181;53.258;6.932;2022-08-21T04:57:49;11.60;;;3.80;;
65658;SDS011;60181;53.258;6.932;2022-08-21T05:02:17;11.60;;;3.80;;
65658;SDS011;60181;53.258;6.932;2022-08-21T05:06:45;12.90;;;3.60;;
65658;SDS011;60181;53.258;6.932;2022-08-21T05:11:13;12.90;;;3.60;;
65658;SDS011;60181;53.258;6.932;2022-08-21T05:15:41;12.90;;;3.60;;
65658;SDS011;60181;53.258;6.932;2022-08-21T05:20:09;9.50;;;3.50;;
65658;SDS011;60181;53.258;6.932;2022-08-21T05:24:37;9.50;;;3.50;;
65658;SDS011;60181;53.258;6.932;2022-08-21T05:29:05;26.40;;;4.30;;
65658;SDS011;60181;53.258;6.932;2022-08-21T05:33:33;26.40;;;4.30;;
65658;SDS011;60181;53.258;6.932;2022-08-21T05:38:01;14.30;;;4.50;;
65658;SDS011;60181;53.258;6.932;2022-08-21T05:42:29;14.30;;;4.50;;
65658;SDS011;60181;53.258;6.932;2022-08-21T05:47:03;23.70;;;4.80;;
65658;SDS011;60181;53.258;6.932;2022-08-21T05:51:25;23.70;;;4.80;;
65658;SDS011;60181;53.258;6.932;2022-08-21T05:55:53;23.70;;;4.80;;
65658;SDS011;60181;53.258;6.932;2022-08-21T06:00:21;13.00;;;4.20;;
65658;SDS011;60181;53.258;6.932;2022-08-21T06:04:48;13.00;;;4.20;;
65658;SDS011;60181;53.258;6.932;2022-08-21T06:09:17;12.50;;;4.30;;
65658;SDS011;60181;53.258;6.932;2022-08-21T06:13:45;12.50;;;4.30;;
65658;SDS011;60181;53.258;6.932;2022-08-21T06:18:12;11.60;;;4.60;;
65658;SDS011;60181;53.258;6.932;2022-08-21T06:22:40;11.60;;;4.60;;
65658;SDS011;60181;53.258;6.932;2022-08-21T06:27:08;12.90;;;4.40;;
65658;SDS011;60181;53.258;6.932;2022-08-21T06:31:38;12.90;;;4.40;;
65658;SDS011;60181;53.258;6.932;2022-08-21T06:36:05;12.90;;;4.40;;
65658;SDS011;60181;53.258;6.932;2022-08-21T06:40:32;10.40;;;4.50;;
65658;SDS011;60181;53.258;6.932;2022-08-21T06:45:00;10.40;;;4.50;;
65658;SDS011;60181;53.258;6.932;2022-08-21T06:49:28;15.80;;;4.80;;
65658;SDS011;60181;53.258;6.932;2022-08-21T06:53:56;15.80;;;4.80;;
65658;SDS011;60181;53.258;6.932;2022-08-21T06:58:25;17.60;;;4.70;;
65658;SDS011;60181;53.258;6.932;2022-08-21T07:02:52;17.60;;;4.70;;
65658;SDS011;60181;53.258;6.932;2022-08-21T07:07:20;11.30;;;4.20;;
65658;SDS011;60181;53.258;6.932;2022-08-21T07:11:50;11.30;;;4.20;;
65658;SDS011;60181;53.258;6.932;2022-08-21T07:16:16;11.30;;;4.20;;
65658;SDS011;60181;53.258;6.932;2022-08-21T07:20:45;14.50;;;4.30;;
65658;SDS011;60181;53.258;6.932;2022-08-21T07:25:13;14.50;;;4.30;;
65658;SDS011;60181;53.258;6.932;2022-08-21T07:29:40;11.10;;;3.80;;
65658;SDS011;60181;53.258;6.932;2022-08-21T07:34:08;11.10;;;3.80;;
65658;SDS011;60181;53.258;6.932;2022-08-21T07:38:36;13.50;;;3.90;;
65658;SDS011;60181;53.258;6.932;2022-08-21T07:43:04;13.50;;;3.90;;
65658;SDS011;60181;53.258;6.932;2022-08-21T07:47:32;15.30;;;3.80;;
65658;SDS011;60181;53.258;6.932;2022-08-21T07:52:01;15.30;;;3.80;;
65658;SDS011;60181;53.258;6.932;2022-08-21T07:56:29;12.70;;;3.00;;
65658;SDS011;60181;53.258;6.932;2022-08-21T08:00:56;12.70;;;3.00;;
65658;SDS011;60181;53.258;6.932;2022-08-21T08:05:26;12.70;;;3.00;;
65658;SDS011;60181;53.258;6.932;2022-08-21T08:09:52;11.40;;;3.00;;
65658;SDS011;60181;53.258;6.932;2022-08-21T08:14:20;11.40;;;3.00;;
65658;SDS011;60181;53.258;6.932;2022-08-21T08:18:48;10.90;;;3.20;;
65658;SDS011;60181;53.258;6.932;2022-08-21T08:23:16;10.90;;;3.20;;
65658;SDS011;60181;53.258;6.932;2022-08-21T08:27:44;14.30;;;4.00;;
65658;SDS011;60181;53.258;6.932;2022-08-21T08:32:12;14.30;;;4.00;;
65658;SDS011;60181;53.258;6.932;2022-08-21T08:36:40;15.30;;;4.10;;
65658;SDS011;60181;53.258;6.932;2022-08-21T08:41:11;15.30;;;4.10;;
65658;SDS011;60181;53.258;6.932;2022-08-21T08:45:37;15.30;;;4.10;;
65658;SDS011;60181;53.258;6.932;2022-08-21T08:50:09;52.40;;;20.00;;
65658;SDS011;60181;53.258;6.932;2022-08-21T08:54:37;52.40;;;20.00;;
65658;SDS011;60181;53.258;6.932;2022-08-21T08:59:17;58.80;;;24.10;;
65658;SDS011;60181;53.258;6.932;2022-08-21T09:03:28;58.80;;;24.10;;
65658;SDS011;60181;53.258;6.932;2022-08-21T09:08:01;60.90;;;23.80;;
65658;SDS011;60181;53.258;6.932;2022-08-21T09:17:06;50.20;;;18.50;;
65658;SDS011;60181;53.258;6.932;2022-08-21T09:21:24;50.20;;;18.50;;
65658;SDS011;60181;53.258;6.932;2022-08-21T09:25:55;50.20;;;18.50;;
65658;SDS011;60181;53.258;6.932;2022-08-21T09:30:17;36.70;;;14.20;;
65658;SDS011;60181;53.258;6.932;2022-08-21T09:35:00;36.70;;;14.20;;
65658;SDS011;60181;53.258;6.932;2022-08-21T09:39:13;31.90;;;10.90;;
65658;SDS011;60181;53.258;6.932;2022-08-21T09:43:40;31.90;;;10.90;;
65658;SDS011;60181;53.258;6.932;2022-08-21T09:52:41;22.40;;;8.90;;
65658;SDS011;60181;53.258;6.932;2022-08-21T10:01:32;21.40;;;7.00;;
65658;SDS011;60181;53.258;6.932;2022-08-21T10:06:04;21.40;;;7.00;;
65658;SDS011;60181;53.258;6.932;2022-08-21T10:10:30;19.30;;;6.40;;
65658;SDS011;60181;53.258;6.932;2022-08-21T10:28:22;14.80;;;5.40;;
65658;SDS011;60181;53.258;6.932;2022-08-21T10:32:55;14.80;;;5.40;;
65658;SDS011;60181;53.258;6.932;2022-08-21T10:37:18;12.10;;;4.70;;
65658;SDS011;60181;53.258;6.932;2022-08-21T10:42:03;12.10;;;4.70;;
65658;SDS011;60181;53.258;6.932;2022-08-21T10:50:42;16.20;;;5.10;;
65658;SDS011;60181;53.258;6.932;2022-08-21T10:55:12;16.20;;;5.10;;
65658;SDS011;60181;53.258;6.932;2022-08-21T10:59:44;11.30;;;4.50;;
65658;SDS011;60181;53.258;6.932;2022-08-21T11:04:09;11.30;;;4.50;;
65658;SDS011;60181;53.258;6.932;2022-08-21T11:08:37;12.70;;;4.50;;
65658;SDS011;60181;53.258;6.932;2022-08-21T11:13:11;12.70;;;4.50;;
65658;SDS011;60181;53.258;6.932;2022-08-21T11:17:36;12.50;;;4.20;;
65658;SDS011;60181;53.258;6.932;2022-08-21T11:21:58;12.50;;;4.20;;
65658;SDS011;60181;53.258;6.932;2022-08-21T11:35:27;13.90;;;4.10;;
65658;SDS011;60181;53.258;6.932;2022-08-21T11:40:03;12.10;;;4.10;;
65658;SDS011;60181;53.258;6.932;2022-08-21T11:53:14;11.20;;;4.00;;
65658;SDS011;60181;53.258;6.932;2022-08-21T11:57:45;10.50;;;3.80;;
65658;SDS011;60181;53.258;6.932;2022-08-21T12:02:10;10.50;;;3.80;;
65658;SDS011;60181;53.258;6.932;2022-08-21T12:06:37;9.50;;;3.50;;
65658;SDS011;60181;53.258;6.932;2022-08-21T12:11:08;9.50;;;3.50;;
65658;SDS011;60181;53.258;6.932;2022-08-21T12:15:32;9.50;;;3.50;;
65658;SDS011;60181;53.258;6.932;2022-08-21T12:20:04;10.50;;;3.50;;
65658;SDS011;60181;53.258;6.932;2022-08-21T12:24:39;10.50;;;3.50;;
65658;SDS011;60181;53.258;6.932;2022-08-21T12:33:36;10.20;;;3.60;;
65658;SDS011;60181;53.258;6.932;2022-08-21T12:42:22;10.80;;;3.60;;
65658;SDS011;60181;53.258;6.932;2022-08-21T12:46:51;8.90;;;3.80;;
65658;SDS011;60181;53.258;6.932;2022-08-21T12:51:23;8.90;;;3.80;;
65658;SDS011;60181;53.258;6.932;2022-08-21T12:55:44;8.90;;;3.80;;
65658;SDS011;60181;53.258;6.932;2022-08-21T13:00:13;10.40;;;3.90;;
65658;SDS011;60181;53.258;6.932;2022-08-21T13:04:40;10.40;;;3.90;;
65658;SDS011;60181;53.258;6.932;2022-08-21T13:09:10;11.00;;;3.80;;
65658;SDS011;60181;53.258;6.932;2022-08-21T13:13:36;11.00;;;3.80;;
65658;SDS011;60181;53.258;6.932;2022-08-21T13:18:04;10.90;;;4.00;;
65658;SDS011;60181;53.258;6.932;2022-08-21T13:22:32;10.90;;;4.00;;
65658;SDS011;60181;53.258;6.932;2022-08-21T13:27:00;8.90;;;4.00;;
65658;SDS011;60181;53.258;6.932;2022-08-21T13:31:29;8.90;;;4.00;;
65658;SDS011;60181;53.258;6.932;2022-08-21T13:36:01;8.90;;;4.00;;
65658;SDS011;60181;53.258;6.932;2022-08-21T13:40:26;11.60;;;4.20;;
65658;SDS011;60181;53.258;6.932;2022-08-21T13:44:52;11.60;;;4.20;;
65658;SDS011;60181;53.258;6.932;2022-08-21T13:49:20;10.30;;;3.90;;
65658;SDS011;60181;53.258;6.932;2022-08-21T13:53:49;10.30;;;3.90;;
65658;SDS011;60181;53.258;6.932;2022-08-21T14:02:45;12.90;;;3.90;;
65658;SDS011;60181;53.258;6.932;2022-08-21T14:07:16;9.40;;;3.40;;
65658;SDS011;60181;53.258;6.932;2022-08-21T14:11:40;9.40;;;3.40;;
65658;SDS011;60181;53.258;6.932;2022-08-21T14:16:13;9.40;;;3.40;;
65658;SDS011;60181;53.258;6.932;2022-08-21T14:20:36;9.80;;;3.30;;
65658;SDS011;60181;53.258;6.932;2022-08-21T14:25:26;9.80;;;3.30;;
65658;SDS011;60181;53.258;6.932;2022-08-21T14:29:33;10.10;;;3.60;;
65658;SDS011;60181;53.258;6.932;2022-08-21T14:34:00;10.10;;;3.60;;
65658;SDS011;60181;53.258;6.932;2022-08-21T14:38:28;11.50;;;3.40;;
65658;SDS011;60181;53.258;6.932;2022-08-21T14:42:56;11.50;;;3.40;;
65658;SDS011;60181;53.258;6.932;2022-08-21T14:47:24;11.90;;;3.20;;
65658;SDS011;60181;53.258;6.932;2022-08-21T14:51:52;11.90;;;3.20;;
65658;SDS011;60181;53.258;6.932;2022-08-21T14:56:20;11.90;;;3.20;;
65658;SDS011;60181;53.258;6.932;2022-08-21T15:00:48;13.20;;;3.10;;
65658;SDS011;60181;53.258;6.932;2022-08-21T15:05:16;13.20;;;3.10;;
65658;SDS011;60181;53.258;6.932;2022-08-21T15:09:44;12.20;;;3.40;;
65658;SDS011;60181;53.258;6.932;2022-08-21T15:14:14;12.20;;;3.40;;
65658;SDS011;60181;53.258;6.932;2022-08-21T15:18:40;12.40;;;3.30;;
65658;SDS011;60181;53.258;6.932;2022-08-21T15:23:08;12.40;;;3.30;;
65658;SDS011;60181;53.258;6.932;2022-08-21T15:27:36;12.90;;;3.40;;
65658;SDS011;60181;53.258;6.932;2022-08-21T15:32:17;12.90;;;3.40;;
65658;SDS011;60181;53.258;6.932;2022-08-21T15:36:32;14.10;;;3.20;;
65658;SDS011;60181;53.258;6.932;2022-08-21T15:41:01;14.10;;;3.20;;
65658;SDS011;60181;53.258;6.932;2022-08-21T15:45:28;14.10;;;3.20;;
65658;SDS011;60181;53.258;6.932;2022-08-21T15:49:56;13.50;;;3.40;;
65658;SDS011;60181;53.258;6.932;2022-08-21T15:54:24;13.50;;;3.40;;
65658;SDS011;60181;53.258;6.932;2022-08-21T15:58:52;12.30;;;3.40;;
65658;SDS011;60181;53.258;6.932;2022-08-21T16:03:20;12.30;;;3.40;;
65658;SDS011;60181;53.258;6.932;2022-08-21T16:07:48;13.10;;;3.20;;
65658;SDS011;60181;53.258;6.932;2022-08-21T16:12:28;13.10;;;3.20;;
65658;SDS011;60181;53.258;6.932;2022-08-21T16:16:44;14.60;;;3.30;;
65658;SDS011;60181;53.258;6.932;2022-08-21T16:21:12;14.60;;;3.30;;
65658;SDS011;60181;53.258;6.932;2022-08-21T16:25:40;14.60;;;3.30;;
65658;SDS011;60181;53.258;6.932;2022-08-21T16:30:08;14.90;;;3.50;;
65658;SDS011;60181;53.258;6.932;2022-08-21T16:34:36;14.90;;;3.50;;
65658;SDS011;60181;53.258;6.932;2022-08-21T16:39:04;15.70;;;3.30;;
65658;SDS011;60181;53.258;6.932;2022-08-21T16:43:32;15.70;;;3.30;;
65658;SDS011;60181;53.258;6.932;2022-08-21T16:48:00;15.00;;;3.30;;
65658;SDS011;60181;53.258;6.932;2022-08-21T16:52:28;15.00;;;3.30;;
65658;SDS011;60181;53.258;6.932;2022-08-21T16:56:56;11.40;;;3.10;;
65658;SDS011;60181;53.258;6.932;2022-08-21T17:01:25;11.40;;;3.10;;
65658;SDS011;60181;53.258;6.932;2022-08-21T17:05:52;11.40;;;3.10;;
65658;SDS011;60181;53.258;6.932;2022-08-21T17:10:20;14.30;;;3.40;;
65658;SDS011;60181;53.258;6.932;2022-08-21T17:14:48;14.30;;;3.40;;
65658;SDS011;60181;53.258;6.932;2022-08-21T17:19:16;12.70;;;3.20;;
65658;SDS011;60181;53.258;6.932;2022-08-21T17:23:44;12.70;;;3.20;;
65658;SDS011;60181;53.258;6.932;2022-08-21T17:28:16;9.60;;;3.00;;
65658;SDS011;60181;53.258;6.932;2022-08-21T17:32:40;9.60;;;3.00;;
65658;SDS011;60181;53.258;6.932;2022-08-21T17:37:08;13.20;;;3.60;;
65658;SDS011;60181;53.258;6.932;2022-08-21T17:41:36;13.20;;;3.60;;
65658;SDS011;60181;53.258;6.932;2022-08-21T17:46:04;13.20;;;3.60;;
65658;SDS011;60181;53.258;6.932;2022-08-21T17:50:32;10.70;;;3.60;;
65658;SDS011;60181;53.258;6.932;2022-08-21T17:55:00;10.70;;;3.60;;
65658;SDS011;60181;53.258;6.932;2022-08-21T17:59:28;9.50;;;3.60;;
65658;SDS011;60181;53.258;6.932;2022-08-21T18:03:55;9.50;;;3.60;;
65658;SDS011;60181;53.258;6.932;2022-08-21T18:08:23;9.70;;;3.50;;
65658;SDS011;60181;53.258;6.932;2022-08-21T18:12:52;9.70;;;3.50;;
65658;SDS011;60181;53.258;6.932;2022-08-21T18:17:20;10.50;;;3.50;;
65658;SDS011;60181;53.258;6.932;2022-08-21T18:21:47;10.50;;;3.50;;
65658;SDS011;60181;53.258;6.932;2022-08-21T18:26:20;10.50;;;3.50;;
65658;SDS011;60181;53.258;6.932;2022-08-21T18:30:44;8.20;;;3.50;;
65658;SDS011;60181;53.258;6.932;2022-08-21T18:35:12;8.20;;;3.50;;
65658;SDS011;60181;53.258;6.932;2022-08-21T18:39:39;7.70;;;3.60;;
65658;SDS011;60181;53.258;6.932;2022-08-21T18:44:08;7.70;;;3.60;;
65658;SDS011;60181;53.258;6.932;2022-08-21T18:48:35;10.50;;;3.70;;
65658;SDS011;60181;53.258;6.932;2022-08-21T18:53:04;10.50;;;3.70;;
65658;SDS011;60181;53.258;6.932;2022-08-21T18:57:31;9.80;;;3.80;;
65658;SDS011;60181;53.258;6.932;2022-08-21T19:01:59;9.80;;;3.80;;
65658;SDS011;60181;53.258;6.932;2022-08-21T19:06:27;10.30;;;3.70;;
65658;SDS011;60181;53.258;6.932;2022-08-21T19:10:56;10.30;;;3.70;;
65658;SDS011;60181;53.258;6.932;2022-08-21T19:15:24;10.30;;;3.70;;
65658;SDS011;60181;53.258;6.932;2022-08-21T19:19:52;9.30;;;3.50;;
65658;SDS011;60181;53.258;6.932;2022-08-21T19:24:19;9.30;;;3.50;;
65658;SDS011;60181;53.258;6.932;2022-08-21T19:28:48;7.70;;;3.70;;
65658;SDS011;60181;53.258;6.932;2022-08-21T19:33:18;7.70;;;3.70;;
65658;SDS011;60181;53.258;6.932;2022-08-21T19:37:44;7.10;;;3.60;;
65658;SDS011;60181;53.258;6.932;2022-08-21T19:42:11;7.10;;;3.60;;
65658;SDS011;60181;53.258;6.932;2022-08-21T19:46:40;8.40;;;3.40;;
65658;SDS011;60181;53.258;6.932;2022-08-21T19:51:07;8.40;;;3.40;;
65658;SDS011;60181;53.258;6.932;2022-08-21T19:55:35;8.40;;;3.40;;
65658;SDS011;60181;53.258;6.932;2022-08-21T20:00:04;12.50;;;3.70;;
65658;SDS011;60181;53.258;6.932;2022-08-21T20:04:31;12.50;;;3.70;;
65658;SDS011;60181;53.258;6.932;2022-08-21T20:09:00;9.80;;;3.40;;
65658;SDS011;60181;53.258;6.932;2022-08-21T20:13:28;9.80;;;3.40;;
65658;SDS011;60181;53.258;6.932;2022-08-21T20:17:55;8.90;;;3.30;;
65658;SDS011;60181;53.258;6.932;2022-08-21T20:22:23;8.90;;;3.30;;
65658;SDS011;60181;53.258;6.932;2022-08-21T20:26:51;10.60;;;3.50;;
65658;SDS011;60181;53.258;6.932;2022-08-21T20:31:19;10.60;;;3.50;;
65658;SDS011;60181;53.258;6.932;2022-08-21T20:35:47;10.60;;;3.50;;
65658;SDS011;60181;53.258;6.932;2022-08-21T20:40:16;9.80;;;4.00;;
65658;SDS011;60181;53.258;6.932;2022-08-21T20:44:43;9.80;;;4.00;;
65658;SDS011;60181;53.258;6.932;2022-08-21T20:53:51;27.50;;;4.70;;
65658;SDS011;60181;53.258;6.932;2022-08-21T20:58:09;15.40;;;4.30;;
65658;SDS011;60181;53.258;6.932;2022-08-21T21:07:03;17.00;;;4.30;;
65658;SDS011;60181;53.258;6.932;2022-08-21T21:11:36;17.00;;;4.30;;
65658;SDS011;60181;53.258;6.932;2022-08-21T21:16:13;17.00;;;4.30;;
65658;SDS011;60181;53.258;6.932;2022-08-21T21:20:29;10.40;;;4.20;;
65658;SDS011;60181;53.258;6.932;2022-08-21T21:29:29;14.40;;;4.20;;
65658;SDS011;60181;53.258;6.932;2022-08-21T21:33:51;14.40;;;4.20;;
65658;SDS011;60181;53.258;6.932;2022-08-21T21:38:35;12.50;;;4.10;;
65658;SDS011;60181;53.258;6.932;2022-08-21T21:42:50;12.50;;;4.10;;
65658;SDS011;60181;53.258;6.932;2022-08-21T21:47:23;10.20;;;4.00;;
65658;SDS011;60181;53.258;6.932;2022-08-21T21:52:02;10.20;;;4.00;;
65658;SDS011;60181;53.258;6.932;2022-08-21T22:00:40;14.50;;;4.30;;
65658;SDS011;60181;53.258;6.932;2022-08-21T22:14:14;10.40;;;4.10;;
65658;SDS011;60181;53.258;6.932;2022-08-21T22:18:34;11.10;;;4.00;;
65658;SDS011;60181;53.258;6.932;2022-08-21T22:23:00;11.10;;;4.00;;
65658;SDS011;60181;53.258;6.932;2022-08-21T22:27:29;12.90;;;4.40;;
65658;SDS011;60181;53.258;6.932;2022-08-21T22:32:03;12.90;;;4.40;;
65658;SDS011;60181;53.258;6.932;2022-08-21T22:36:23;12.90;;;4.40;;
65658;SDS011;60181;53.258;6.932;2022-08-21T22:40:51;10.30;;;3.80;;
65658;SDS011;60181;53.258;6.932;2022-08-21T22:45:19;10.30;;;3.80;;
65658;SDS011;60181;53.258;6.932;2022-08-21T22:49:47;11.90;;;3.80;;
65658;SDS011;60181;53.258;6.932;2022-08-21T22:54:26;11.90;;;3.80;;
65658;SDS011;60181;53.258;6.932;2022-08-21T22:58:53;12.50;;;3.80;;
65658;SDS011;60181;53.258;6.932;2022-08-21T23:03:22;12.50;;;3.80;;
65658;SDS011;60181;53.258;6.932;2022-08-21T23:07:40;10.20;;;4.10;;
65658;SDS011;60181;53.258;6.932;2022-08-21T23:12:23;10.20;;;4.10;;
65658;SDS011;60181;53.258;6.932;2022-08-21T23:30:07;11.90;;;3.70;;
65658;SDS011;60181;53.258;6.932;2022-08-21T23:34:30;11.90;;;3.70;;
65658;SDS011;60181;53.258;6.932;2022-08-21T23:39:11;8.80;;;3.50;;
65658;SDS011;60181;53.258;6.932;2022-08-21T23:43:42;8.80;;;3.50;;
65658;SDS011;60181;53.258;6.932;2022-08-21T23:52:46;12.00;;;3.70;;
65658;SDS011;60181;53.258;6.932;2022-08-21T23:57:05;7.50;;;3.50;;
